Kasagimaru — JJ3905 — position and weather

sailwx.info

Track history (hours):
 
Tides and Currents Weather Stations Pressure Air Temp Water Temp Dewpoint Dewpoint Depression Visibility Wind Speed Wind Dir Waves Ship Positions

Kasagimaru

Last reported at 2014-Jul-22 07:25 UTC. Time now 2014-Jul-22 23:16 UTC.
Position N 34°38' E 135°29'.

Length 42 m; draft 3.5 m.

Type: Tug. MMSI: 431300268.

Date/timePositionNaut miles runAvg speedWind from/ knotsBaromVisibWave heightAir tempDewpointWater temp
2014-Jul-22 07:25N 34°38' E 135°29'0 0.0
2014-Jul-22 05:32N 34°38' E 135°29'0 0.0
2014-Jul-22 04:11N 34°38' E 135°29'0 0.0
2014-Jul-22 03:33N 34°38' E 135°29'0 0.0
2014-Jul-22 02:32N 34°38' E 135°29'0 0.0
2014-Jul-22 01:30N 34°38' E 135°29'0 0.0
2014-Jul-22 00:26N 34°38' E 135°29'0 0.0
2014-Jul-21 09:28N 34°38' E 135°29'7 7.6
2014-Jul-21 08:33N 34°36' E 135°20'5 5.0
2014-Jul-21 07:32N 34°33' E 135°26'0 0.3
2014-Jul-21 06:33N 34°33' E 135°26'0 0.1
2014-Jul-21 05:33N 34°33' E 135°26'4 3.8
2014-Jul-21 04:33N 34°33' E 135°21'2 2.2
2014-Jul-21 03:32N 34°32' E 135°24'1 0.9
2014-Jul-21 02:32N 34°31' E 135°24'0 0.0
2014-Jul-21 01:33N 34°31' E 135°24'0 0.1
2014-Jul-21 00:31N 34°31' E 135°24'3 2.6
2014-Jul-20 23:34N 34°33' E 135°26'1 0.7
2014-Jul-20 22:33N 34°33' E 135°27'0 0.0
2014-Jul-20 21:33N 34°33' E 135°27'0 0.0
2014-Jul-20 20:33N 34°33' E 135°27'0 0.0
2014-Jul-20 19:33N 34°33' E 135°27'0 0.0
2014-Jul-20 18:33N 34°33' E 135°27'0 0.0
2014-Jul-20 17:32N 34°33' E 135°27'0 0.0
2014-Jul-20 16:33N 34°33' E 135°27'0 0.0
2014-Jul-20 15:34N 34°33' E 135°27'0 0.0
2014-Jul-20 14:34N 34°33' E 135°27'0 0.0
2014-Jul-20 13:33N 34°33' E 135°27'0 0.0
2014-Jul-20 12:33N 34°33' E 135°27'0 0.0
2014-Jul-20 11:33N 34°33' E 135°27'0 0.0
2014-Jul-20 10:34N 34°33' E 135°27'0 0.0
2014-Jul-20 09:18N 34°33' E 135°27'0 0.0
2014-Jul-20 08:33N 34°33' E 135°27'0 0.0
2014-Jul-20 07:33N 34°33' E 135°27'0 0.2
2014-Jul-20 06:31N 34°33' E 135°27'1 1.0
2014-Jul-20 05:32N 34°33' E 135°25'2 2.4
2014-Jul-20 04:34N 34°34' E 135°23'2 1.8
2014-Jul-20 03:33N 34°36' E 135°24'0 0.0
2014-Jul-20 02:32N 34°36' E 135°24'1 1.1
2014-Jul-20 01:33N 34°37' E 135°25'2 2.0
2014-Jul-20 00:33N 34°37' E 135°22'5 5.1
2014-Jul-19 23:33N 34°33' E 135°27'0 0.0
2014-Jul-19 22:33N 34°33' E 135°27'0 0.0
2014-Jul-19 21:32N 34°33' E 135°27'0 0.0
2014-Jul-19 20:25N 34°33' E 135°27'0 0.0
2014-Jul-19 19:29N 34°33' E 135°27'0 0.0
2014-Jul-19 17:33N 34°33' E 135°27'0 0.0
2014-Jul-19 16:26N 34°33' E 135°27'0 0.0
2014-Jul-19 15:20N 34°33' E 135°27'0 0.0
2014-Jul-19 14:15N 34°33' E 135°27'0 0.0
2014-Jul-19 13:32N 34°33' E 135°27'0 0.0
2014-Jul-19 12:26N 34°33' E 135°27'0 0.0
2014-Jul-19 11:30N 34°33' E 135°27'0 0.0
2014-Jul-19 10:31N 34°33' E 135°27'0 0.0
2014-Jul-19 09:20N 34°33' E 135°27'0 0.0
2014-Jul-19 08:33N 34°33' E 135°27'0 0.0
2014-Jul-19 07:31N 34°33' E 135°27'0 0.0
2014-Jul-19 06:33N 34°33' E 135°27'0 0.0
2014-Jul-19 05:33N 34°33' E 135°27'0 0.0
2014-Jul-19 04:33N 34°33' E 135°27'0 0.0
2014-Jul-19 03:30N 34°33' E 135°27'0 0.0
2014-Jul-19 02:33N 34°33' E 135°27'0 0.0
2014-Jul-19 01:33N 34°33' E 135°27'2 1.7
2014-Jul-19 00:31N 34°33' E 135°24'1 0.9
2014-Jul-18 23:30N 34°33' E 135°25'0 0.3
2014-Jul-18 22:33N 34°33' E 135°25'0 0.2
2014-Jul-18 21:33N 34°33' E 135°25'1110.6
2014-Jul-18 20:33N 34°35' E 135°12'17 5.5
2014-Jul-18 17:30N 34°35' E 134°52'1010.4
2014-Jul-18 16:33N 34°37' E 135°04'6 6.3
2014-Jul-18 15:32N 34°31' E 135°07'1612.5
2014-Jul-18 14:18N 34°17' E 134°59'6 7.2
2014-Jul-18 13:27N 34°11' E 135°01'1010.4
2014-Jul-18 12:32N 34°20' E 135°05'1211.9
2014-Jul-18 11:33N 34°26' E 135°17'8 0.6
2014-Jul-17 22:26N 34°32' E 135°24'1 0.6
2014-Jul-17 21:33N 34°32' E 135°24'2 2.4
2014-Jul-17 20:33N 34°33' E 135°27'0 0.0
2014-Jul-17 19:32N 34°33' E 135°27'0 0.0
2014-Jul-17 18:33N 34°33' E 135°27'0 0.0
2014-Jul-17 17:33N 34°33' E 135°27'0 0.0
2014-Jul-17 16:32N 34°33' E 135°27'0 0.0
2014-Jul-17 15:33N 34°33' E 135°27'0 0.0
2014-Jul-17 14:33N 34°33' E 135°27'0 0.0
2014-Jul-17 13:33N 34°33' E 135°27'0 0.0
2014-Jul-17 12:33N 34°33' E 135°27'0 0.0
2014-Jul-17 11:33N 34°33' E 135°27'0 0.0
2014-Jul-17 10:33N 34°33' E 135°27'0 0.0
2014-Jul-17 09:33N 34°33' E 135°27'0 0.0
2014-Jul-17 08:33N 34°33' E 135°27'1 0.6
2014-Jul-17 07:33N 34°33' E 135°26'0 0.0
2014-Jul-17 06:32N 34°33' E 135°26'1 0.9
2014-Jul-17 05:33N 34°33' E 135°25'2 1.6
2014-Jul-17 04:33N 34°34' E 135°23'32 1.2
2014-Jul-16 02:19N 34°08' E 135°00'811.2
2014-Jul-16 01:33N 34°13' E 135°08'  
2014-Jul-13 10:08N 34°08' E 134°47'1911.5
2014-Jul-13 08:30N 34°23' E 135°01'1515.5
2014-Jul-13 07:33N 34°31' E 135°16'8 7.5
2014-Jul-13 06:33N 34°34' E 135°24'3 2.7
2014-Jul-13 05:34N 34°31' E 135°24'0 0.0
2014-Jul-13 04:24N 34°31' E 135°24'0 0.0
2014-Jul-13 03:27N 34°31' E 135°24'0 0.0
2014-Jul-13 01:31N 34°31' E 135°24'0 0.0
2014-Jul-13 00:34N 34°31' E 135°24'0 0.1
2014-Jul-12 23:32N 34°31' E 135°24'3 2.7
2014-Jul-12 22:33N 34°33' E 135°27'0 0.0
2014-Jul-12 21:34N 34°33' E 135°27'0 0.0
2014-Jul-12 20:34N 34°33' E 135°27'0 0.0
2014-Jul-12 19:33N 34°33' E 135°27'0 0.0
2014-Jul-12 18:32N 34°33' E 135°27'0 0.0
2014-Jul-12 17:33N 34°33' E 135°27'0 0.0
2014-Jul-12 16:34N 34°33' E 135°27'0 0.0
2014-Jul-12 15:33N 34°33' E 135°27'0 0.0
2014-Jul-12 14:34N 34°33' E 135°27'0 0.0
2014-Jul-12 13:34N 34°33' E 135°27'0 0.0
2014-Jul-12 12:33N 34°33' E 135°27'0 0.0
2014-Jul-12 11:33N 34°33' E 135°27'0 0.0
2014-Jul-12 10:33N 34°33' E 135°27'0 0.0
2014-Jul-12 09:34N 34°33' E 135°27'0 0.0
2014-Jul-12 08:33N 34°33' E 135°27'0 0.0
2014-Jul-12 07:33N 34°33' E 135°27'  
Track history (hours):
 
Tides and Currents Weather Stations Pressure Air Temp Water Temp Dewpoint Dewpoint Depression Visibility Wind Speed Wind Dir Waves Ship Positions

Kasagimaru

Last reported at 2014-Jul-22 07:25 UTC. Time now 2014-Jul-22 23:16 UTC.
Position N 34°38' E 135°29'.

Length 42 m; draft 3.5 m.

Type: Tug. MMSI: 431300268.

Date/timePositionNaut miles runAvg speedWind from/ knotsBaromVisibWave heightAir tempDewpointWater temp
2014-Jul-22 07:25N 34°38' E 135°29'0 0.0
2014-Jul-22 05:32N 34°38' E 135°29'0 0.0
2014-Jul-22 04:11N 34°38' E 135°29'0 0.0
2014-Jul-22 03:33N 34°38' E 135°29'0 0.0
2014-Jul-22 02:32N 34°38' E 135°29'0 0.0
2014-Jul-22 01:30N 34°38' E 135°29'0 0.0
2014-Jul-22 00:26N 34°38' E 135°29'0 0.0
2014-Jul-21 09:28N 34°38' E 135°29'7 7.6
2014-Jul-21 08:33N 34°36' E 135°20'5 5.0
2014-Jul-21 07:32N 34°33' E 135°26'0 0.3
2014-Jul-21 06:33N 34°33' E 135°26'0 0.1
2014-Jul-21 05:33N 34°33' E 135°26'4 3.8
2014-Jul-21 04:33N 34°33' E 135°21'2 2.2
2014-Jul-21 03:32N 34°32' E 135°24'1 0.9
2014-Jul-21 02:32N 34°31' E 135°24'0 0.0
2014-Jul-21 01:33N 34°31' E 135°24'0 0.1
2014-Jul-21 00:31N 34°31' E 135°24'3 2.6
2014-Jul-20 23:34N 34°33' E 135°26'1 0.7
2014-Jul-20 22:33N 34°33' E 135°27'0 0.0
2014-Jul-20 21:33N 34°33' E 135°27'0 0.0
2014-Jul-20 20:33N 34°33' E 135°27'0 0.0
2014-Jul-20 19:33N 34°33' E 135°27'0 0.0
2014-Jul-20 18:33N 34°33' E 135°27'0 0.0
2014-Jul-20 17:32N 34°33' E 135°27'0 0.0
2014-Jul-20 16:33N 34°33' E 135°27'0 0.0
2014-Jul-20 15:34N 34°33' E 135°27'0 0.0
2014-Jul-20 14:34N 34°33' E 135°27'0 0.0
2014-Jul-20 13:33N 34°33' E 135°27'0 0.0
2014-Jul-20 12:33N 34°33' E 135°27'0 0.0
2014-Jul-20 11:33N 34°33' E 135°27'0 0.0
2014-Jul-20 10:34N 34°33' E 135°27'0 0.0
2014-Jul-20 09:18N 34°33' E 135°27'0 0.0
2014-Jul-20 08:33N 34°33' E 135°27'0 0.0
2014-Jul-20 07:33N 34°33' E 135°27'0 0.2
2014-Jul-20 06:31N 34°33' E 135°27'1 1.0
2014-Jul-20 05:32N 34°33' E 135°25'2 2.4
2014-Jul-20 04:34N 34°34' E 135°23'2 1.8
2014-Jul-20 03:33N 34°36' E 135°24'0 0.0
2014-Jul-20 02:32N 34°36' E 135°24'1 1.1
2014-Jul-20 01:33N 34°37' E 135°25'2 2.0
2014-Jul-20 00:33N 34°37' E 135°22'5 5.1
2014-Jul-19 23:33N 34°33' E 135°27'0 0.0
2014-Jul-19 22:33N 34°33' E 135°27'0 0.0
2014-Jul-19 21:32N 34°33' E 135°27'0 0.0
2014-Jul-19 20:25N 34°33' E 135°27'0 0.0
2014-Jul-19 19:29N 34°33' E 135°27'0 0.0
2014-Jul-19 17:33N 34°33' E 135°27'0 0.0
2014-Jul-19 16:26N 34°33' E 135°27'0 0.0
2014-Jul-19 15:20N 34°33' E 135°27'0 0.0
2014-Jul-19 14:15N 34°33' E 135°27'0 0.0
2014-Jul-19 13:32N 34°33' E 135°27'0 0.0
2014-Jul-19 12:26N 34°33' E 135°27'0 0.0
2014-Jul-19 11:30N 34°33' E 135°27'0 0.0
2014-Jul-19 10:31N 34°33' E 135°27'0 0.0
2014-Jul-19 09:20N 34°33' E 135°27'0 0.0
2014-Jul-19 08:33N 34°33' E 135°27'0 0.0
2014-Jul-19 07:31N 34°33' E 135°27'0 0.0
2014-Jul-19 06:33N 34°33' E 135°27'0 0.0
2014-Jul-19 05:33N 34°33' E 135°27'0 0.0
2014-Jul-19 04:33N 34°33' E 135°27'0 0.0
2014-Jul-19 03:30N 34°33' E 135°27'0 0.0
2014-Jul-19 02:33N 34°33' E 135°27'0 0.0
2014-Jul-19 01:33N 34°33' E 135°27'2 1.7
2014-Jul-19 00:31N 34°33' E 135°24'1 0.9
2014-Jul-18 23:30N 34°33' E 135°25'0 0.3
2014-Jul-18 22:33N 34°33' E 135°25'0 0.2
2014-Jul-18 21:33N 34°33' E 135°25'1110.6
2014-Jul-18 20:33N 34°35' E 135°12'17 5.5
2014-Jul-18 17:30N 34°35' E 134°52'1010.4
2014-Jul-18 16:33N 34°37' E 135°04'6 6.3
2014-Jul-18 15:32N 34°31' E 135°07'1612.5
2014-Jul-18 14:18N 34°17' E 134°59'6 7.2
2014-Jul-18 13:27N 34°11' E 135°01'1010.4
2014-Jul-18 12:32N 34°20' E 135°05'1211.9
2014-Jul-18 11:33N 34°26' E 135°17'8 0.6
2014-Jul-17 22:26N 34°32' E 135°24'1 0.6
2014-Jul-17 21:33N 34°32' E 135°24'2 2.4
2014-Jul-17 20:33N 34°33' E 135°27'0 0.0
2014-Jul-17 19:32N 34°33' E 135°27'0 0.0
2014-Jul-17 18:33N 34°33' E 135°27'0 0.0
2014-Jul-17 17:33N 34°33' E 135°27'0 0.0
2014-Jul-17 16:32N 34°33' E 135°27'0 0.0
2014-Jul-17 15:33N 34°33' E 135°27'0 0.0
2014-Jul-17 14:33N 34°33' E 135°27'0 0.0
2014-Jul-17 13:33N 34°33' E 135°27'0 0.0
2014-Jul-17 12:33N 34°33' E 135°27'0 0.0
2014-Jul-17 11:33N 34°33' E 135°27'0 0.0
2014-Jul-17 10:33N 34°33' E 135°27'0 0.0
2014-Jul-17 09:33N 34°33' E 135°27'0 0.0
2014-Jul-17 08:33N 34°33' E 135°27'1 0.6
2014-Jul-17 07:33N 34°33' E 135°26'0 0.0
2014-Jul-17 06:32N 34°33' E 135°26'1 0.9
2014-Jul-17 05:33N 34°33' E 135°25'2 1.6
2014-Jul-17 04:33N 34°34' E 135°23'32 1.2
2014-Jul-16 02:19N 34°08' E 135°00'811.2
2014-Jul-16 01:33N 34°13' E 135°08'  
2014-Jul-13 10:08N 34°08' E 134°47'1911.5
2014-Jul-13 08:30N 34°23' E 135°01'1515.5
2014-Jul-13 07:33N 34°31' E 135°16'8 7.5
2014-Jul-13 06:33N 34°34' E 135°24'3 2.7
2014-Jul-13 05:34N 34°31' E 135°24'0 0.0
2014-Jul-13 04:24N 34°31' E 135°24'0 0.0
2014-Jul-13 03:27N 34°31' E 135°24'0 0.0
2014-Jul-13 01:31N 34°31' E 135°24'0 0.0
2014-Jul-13 00:34N 34°31' E 135°24'0 0.1
2014-Jul-12 23:32N 34°31' E 135°24'3 2.7
2014-Jul-12 22:33N 34°33' E 135°27'0 0.0
2014-Jul-12 21:34N 34°33' E 135°27'0 0.0
2014-Jul-12 20:34N 34°33' E 135°27'0 0.0
2014-Jul-12 19:33N 34°33' E 135°27'0 0.0
2014-Jul-12 18:32N 34°33' E 135°27'0 0.0
2014-Jul-12 17:33N 34°33' E 135°27'0 0.0
2014-Jul-12 16:34N 34°33' E 135°27'0 0.0
2014-Jul-12 15:33N 34°33' E 135°27'0 0.0
2014-Jul-12 14:34N 34°33' E 135°27'0 0.0
2014-Jul-12 13:34N 34°33' E 135°27'0 0.0
2014-Jul-12 12:33N 34°33' E 135°27'0 0.0
2014-Jul-12 11:33N 34°33' E 135°27'0 0.0
2014-Jul-12 10:33N 34°33' E 135°27'0 0.0
2014-Jul-12 09:34N 34°33' E 135°27'0 0.0
2014-Jul-12 08:33N 34°33' E 135°27'0 0.0
2014-Jul-12 07:33N 34°33' E 135°27'  

Dump ship's entire track history